Time;durP1;ratioP1;P1;durP2;ratioP2;P2;SDS_P1;SDS_P2;PMS_P1;PMS_P2;Temp;Humidity;BMP_temperature;BMP_pressure;BME280_temperature;BME280_humidity;BME280_pressure;Samples;Min_cycle;Max_cycle;Signal;HPM_P1;HPM_P2
2021/10/02 00:33:25;;;;;;;2.70;2.17;;;;;;;22.11;49.68;101133.66;5073319;28;20028;-69
2021/10/02 00:45:15;;;;;;;4.10;2.47;;;;;;;22.11;49.64;101146.09;5074732;28;20497;-71
2021/10/02 00:47:41;;;;;;;3.78;2.90;;;;;;;22.07;49.67;101142.16;5070911;28;20043;-71
2021/10/02 00:50:07;;;;;;;3.58;2.83;;;;;;;22.07;49.50;101132.38;5073224;28;20036;-71
2021/10/02 00:52:32;;;;;;;5.28;2.90;;;;;;;22.02;49.58;101137.41;5075144;28;20042;-71
2021/10/02 00:54:58;;;;;;;4.75;2.85;;;;;;;22.07;49.39;101139.50;5074036;28;20490;-71
2021/10/02 00:57:23;;;;;;;3.70;2.70;;;;;;;22.10;49.49;101144.47;5073579;28;20040;-71
2021/10/02 00:59:49;;;;;;;3.17;2.50;;;;;;;22.06;49.77;101138.69;5075245;28;20048;-71
2021/10/02 01:02:23;;;;;;;4.05;2.67;;;;;;;22.10;49.49;101136.50;5074014;28;20127;-71
2021/10/02 01:05:29;;;;;;;4.68;3.03;;;;;;;22.07;49.73;101132.38;5072438;28;20040;-71
2021/10/02 01:08:19;;;;;;;3.60;2.97;;;;;;;22.07;49.54;101127.06;5072566;28;20514;-71
2021/10/02 01:11:03;;;;;;;4.00;2.78;;;;;;;22.07;49.74;101131.56;5074066;28;20040;-71
2021/10/02 01:13:57;;;;;;;3.85;2.55;;;;;;;22.06;49.70;101122.78;5073841;28;20047;-71
2021/10/02 01:16:32;;;;;;;3.35;2.78;;;;;;;22.06;49.59;101124.59;5072745;28;20036;-70
2021/10/02 01:19:16;;;;;;;3.70;2.70;;;;;;;21.99;49.88;101125.34;5073164;28;20125;-71
2021/10/02 01:22:08;;;;;;;3.92;2.83;;;;;;;22.04;49.61;101130.06;5073071;28;20158;-71
2021/10/02 01:24:52;;;;;;;2.90;2.42;;;;;;;22.04;49.79;101119.47;5074180;28;20486;-71
2021/10/02 01:27:45;;;;;;;4.20;3.35;;;;;;;21.99;49.61;101117.38;5071988;28;20067;-70
2021/10/02 01:30:26;;;;;;;5.13;2.88;;;;;;;22.01;49.66;101114.53;5072696;28;20050;-71
2021/10/02 01:33:05;;;;;;;3.90;2.95;;;;;;;21.99;49.88;101111.25;5070551;28;20044;-70
2021/10/02 01:35:53;;;;;;;4.57;2.80;;;;;;;21.96;49.78;101124.88;5069373;28;20115;-71
2021/10/02 01:49:21;;;;;;;5.80;3.22;;;;;;;21.90;49.92;101125.63;5067903;28;20037;-70
2021/10/02 01:51:50;;;;;;;4.15;3.00;;;;;;;21.95;50.17;101131.19;5067441;28;20083;-71
2021/10/02 01:54:16;;;;;;;3.15;2.83;;;;;;;21.94;49.78;101121.59;5069365;28;20068;-71
2021/10/02 01:56:42;;;;;;;4.22;3.00;;;;;;;21.95;49.74;101128.56;5063233;28;20080;-71
2021/10/02 01:59:11;;;;;;;4.82;2.75;;;;;;;21.91;49.89;101116.69;5067198;28;20441;-71
2021/10/02 02:01:43;;;;;;;4.00;2.70;;;;;;;21.97;49.63;101119.41;5063936;28;20060;-70
2021/10/02 02:04:11;;;;;;;3.75;2.97;;;;;;;21.95;49.65;101107.34;5063263;28;20036;-70
2021/10/02 02:06:38;;;;;;;2.90;2.58;;;;;;;21.97;49.71;101110.63;5070145;28;20086;-71
2021/10/02 02:09:06;;;;;;;3.35;2.88;;;;;;;21.97;49.62;101115.94;5065474;28;20036;-71
2021/10/02 02:11:32;;;;;;;3.85;3.00;;;;;;;21.93;50.06;101112.00;5068526;28;20142;-69
2021/10/02 02:14:00;;;;;;;3.97;3.00;;;;;;;21.96;50.12;101116.94;5069037;28;20169;-71
2021/10/02 02:16:28;;;;;;;3.45;2.70;;;;;;;21.98;49.60;101115.75;5065886;28;20064;-71
2021/10/02 02:18:55;;;;;;;6.70;3.17;;;;;;;21.93;49.81;101109.34;5070060;28;20105;-70
2021/10/02 02:21:21;;;;;;;4.10;3.10;;;;;;;21.88;49.80;101101.13;5069505;28;20166;-70
2021/10/02 02:23:47;;;;;;;4.50;2.90;;;;;;;21.95;49.62;101104.69;5065983;28;20093;-71
2021/10/02 02:26:14;;;;;;;3.65;2.90;;;;;;;21.91;50.09;101106.06;5065746;28;20481;-71
2021/10/02 02:28:41;;;;;;;4.00;2.70;;;;;;;21.90;50.21;101102.59;5070146;28;20047;-71
2021/10/02 02:31:07;;;;;;;3.53;3.03;;;;;;;21.92;50.10;101097.13;5057895;28;20116;-71
2021/10/02 02:33:35;;;;;;;3.92;2.97;;;;;;;21.93;49.84;101096.94;5068092;28;20032;-70
2021/10/02 02:36:05;;;;;;;4.35;2.67;;;;;;;21.97;49.84;101100.03;5061569;28;20119;-71
2021/10/02 02:38:30;;;;;;;4.32;3.30;;;;;;;21.91;49.95;101103.44;5060389;28;20496;-71
2021/10/02 02:40:56;;;;;;;4.28;3.13;;;;;;;21.92;49.93;101102.41;5060656;28;20150;-71
2021/10/02 02:43:23;;;;;;;4.32;3.15;;;;;;;21.89;50.12;101111.53;5062606;28;20032;-71
2021/10/02 02:45:54;;;;;;;5.90;3.33;;;;;;;21.89;50.09;101113.38;5061391;28;20410;-70
2021/10/02 02:48:27;;;;;;;4.05;3.13;;;;;;;21.87;50.28;101112.72;5062055;28;20115;-71
2021/10/02 02:51:06;;;;;;;4.10;2.97;;;;;;;21.91;50.13;101111.38;5064719;28;20040;-72
2021/10/02 02:53:52;;;;;;;4.90;3.47;;;;;;;21.85;50.17;101115.56;5065669;28;20094;-71
2021/10/02 02:56:44;;;;;;;5.32;3.45;;;;;;;21.89;50.17;101097.47;5061859;28;20047;-71
2021/10/02 02:59:19;;;;;;;6.22;3.65;;;;;;;21.79;50.03;101094.31;5058684;28;20107;-72
2021/10/02 03:01:48;;;;;;;4.13;3.15;;;;;;;21.86;50.17;101095.19;5066869;28;20128;-70
2021/10/02 03:04:18;;;;;;;3.67;3.13;;;;;;;21.82;50.03;101080.66;5063485;28;20043;-71
2021/10/02 03:06:50;;;;;;;3.38;2.83;;;;;;;21.83;50.16;101072.53;5067674;28;20364;-71
2021/10/02 03:09:17;;;;;;;4.47;3.08;;;;;;;21.86;50.00;101066.03;5062886;28;20098;-72
2021/10/02 03:11:48;;;;;;;4.30;3.47;;;;;;;21.82;50.02;101056.81;5067735;28;20037;-71
2021/10/02 03:14:18;;;;;;;4.25;3.05;;;;;;;21.82;50.35;101062.94;5064017;28;20067;-72
2021/10/02 03:16:46;;;;;;;5.85;3.28;;;;;;;21.85;50.21;101080.28;5067666;28;20028;-70
2021/10/02 03:19:12;;;;;;;3.38;2.90;;;;;;;21.72;50.31;101059.75;5067845;28;20127;-72
2021/10/02 03:21:39;;;;;;;3.95;3.00;;;;;;;21.86;50.29;101087.22;5064290;28;20486;-71
2021/10/02 03:24:06;;;;;;;3.97;3.38;;;;;;;21.83;50.07;101085.78;5066504;28;20493;-72
2021/10/02 03:26:32;;;;;;;4.05;3.50;;;;;;;21.80;50.27;101090.66;5065650;28;20040;-69
2021/10/02 03:28:58;;;;;;;3.75;3.10;;;;;;;21.85;50.32;101099.66;5067127;28;20493;-72
2021/10/02 03:31:24;;;;;;;4.97;3.30;;;;;;;21.86;50.19;101097.84;5068095;28;20761;-70
2021/10/02 03:33:50;;;;;;;5.80;3.42;;;;;;;21.80;50.29;101091.47;5065638;28;20036;-72
2021/10/02 03:36:17;;;;;;;4.50;3.40;;;;;;;21.83;49.95;101092.91;5066807;28;20059;-70
2021/10/02 03:38:43;;;;;;;3.90;3.20;;;;;;;21.83;50.04;101087.63;5069039;28;20486;-72
2021/10/02 03:41:09;;;;;;;4.03;3.17;;;;;;;21.80;50.11;101095.94;5066822;28;20045;-72
2021/10/02 03:43:36;;;;;;;5.18;3.15;;;;;;;21.80;50.24;101091.47;5067844;28;20059;-72
2021/10/02 03:46:03;;;;;;;5.68;3.72;;;;;;;21.76;50.25;101092.84;5068163;28;20028;-72
2021/10/02 03:48:29;;;;;;;4.00;3.30;;;;;;;21.80;50.18;101088.81;5067987;28;20042;-71
2021/10/02 03:50:55;;;;;;;4.18;3.25;;;;;;;21.80;50.41;101088.81;5068245;28;20511;-72
2021/10/02 03:53:20;;;;;;;3.60;3.10;;;;;;;21.81;50.30;101085.16;5065715;28;20028;-72
2021/10/02 03:55:46;;;;;;;4.90;3.45;;;;;;;21.82;50.06;101083.31;5066587;28;20060;-70
2021/10/02 03:58:11;;;;;;;5.38;3.55;;;;;;;21.81;50.09;101084.34;5066939;28;20045;-72
2021/10/02 04:00:37;;;;;;;4.70;3.60;;;;;;;21.80;50.40;101085.34;5048690;28;20060;-71
2021/10/02 04:03:03;;;;;;;4.80;3.40;;;;;;;21.71;50.43;101066.88;5065672;28;20044;-71
2021/10/02 04:05:28;;;;;;;5.13;3.30;;;;;;;21.74;50.23;101065.72;5064789;28;20040;-72
2021/10/02 04:07:53;;;;;;;3.97;3.50;;;;;;;21.77;50.49;101064.50;5066339;28;20040;-71
2021/10/02 04:10:19;;;;;;;4.93;3.45;;;;;;;21.79;50.12;101065.97;5062132;28;20043;-70
2021/10/02 04:12:45;;;;;;;4.22;3.25;;;;;;;21.77;50.15;101067.97;5066650;28;20040;-71
2021/10/02 04:15:10;;;;;;;4.30;3.20;;;;;;;21.78;50.44;101071.47;5066653;28;20533;-72
2021/10/02 04:17:36;;;;;;;5.50;3.88;;;;;;;21.75;50.30;101079.78;5065888;28;20037;-70
2021/10/02 04:20:04;;;;;;;5.78;3.35;;;;;;;21.74;50.54;101078.16;5066453;28;20120;-72
2021/10/02 04:22:29;;;;;;;5.18;3.80;;;;;;;21.74;50.53;101083.44;5065100;28;20040;-71
2021/10/02 04:24:55;;;;;;;4.10;3.67;;;;;;;21.76;50.48;101082.25;5066838;28;20059;-71
2021/10/02 04:27:20;;;;;;;4.25;3.38;;;;;;;21.77;50.30;101077.75;5065707;28;20028;-72
2021/10/02 04:29:46;;;;;;;6.15;3.50;;;;;;;21.73;50.16;101077.31;5065150;28;20036;-72
2021/10/02 04:32:11;;;;;;;4.72;3.55;;;;;;;21.74;50.10;101084.25;5066626;28;20036;-72
2021/10/02 04:34:37;;;;;;;3.72;3.28;;;;;;;21.75;50.16;101083.25;5064649;28;20044;-72
2021/10/02 04:37:03;;;;;;;5.10;4.15;;;;;;;21.71;50.35;101088.09;5065511;28;20041;-71
2021/10/02 04:39:28;;;;;;;5.07;3.80;;;;;;;21.70;50.47;101085.63;5065846;28;20025;-72
2021/10/02 04:41:54;;;;;;;3.90;3.50;;;;;;;21.73;50.31;101095.06;5065067;28;20036;-72
2021/10/02 04:44:20;;;;;;;3.88;3.38;;;;;;;21.69;50.50;101090.09;5065243;28;20028;-71
2021/10/02 04:46:46;;;;;;;5.72;3.58;;;;;;;21.73;50.21;101101.19;5064057;28;20037;-72
2021/10/02 04:49:12;;;;;;;5.80;3.75;;;;;;;21.73;50.32;101098.53;5066115;28;20048;-72
2021/10/02 04:51:38;;;;;;;4.20;3.45;;;;;;;21.70;50.33;101082.97;5065288;28;20127;-72
2021/10/02 04:54:04;;;;;;;4.47;3.50;;;;;;;21.66;50.64;101090.47;5058185;28;20032;-70
2021/10/02 04:56:30;;;;;;;5.07;3.65;;;;;;;21.71;50.48;101096.03;5065373;28;20060;-72
2021/10/02 04:58:55;;;;;;;4.50;3.58;;;;;;;21.71;50.62;101098.69;5065347;28;20048;-71
2021/10/02 05:01:21;;;;;;;5.80;3.78;;;;;;;21.67;50.59;101097.41;5064343;28;20025;-71
2021/10/02 05:03:47;;;;;;;6.07;3.45;;;;;;;21.73;50.40;101087.09;5063969;28;20052;-72
2021/10/02 05:06:13;;;;;;;4.00;3.60;;;;;;;21.67;50.42;101086.00;5063924;28;20390;-71
2021/10/02 05:08:39;;;;;;;4.47;3.58;;;;;;;21.71;50.32;101080.13;5068830;28;20048;-72
2021/10/02 05:11:06;;;;;;;3.92;3.53;;;;;;;21.67;50.33;101078.03;5069597;28;20020;-71
2021/10/02 05:13:32;;;;;;;5.43;3.60;;;;;;;21.70;50.42;101090.91;5069832;28;20131;-71
2021/10/02 05:15:59;;;;;;;4.22;3.70;;;;;;;21.74;50.40;101086.91;5069938;28;20120;-71
2021/10/02 05:18:25;;;;;;;5.90;3.75;;;;;;;21.74;50.63;101096.69;5069305;28;20048;-71
2021/10/02 05:20:50;;;;;;;4.22;3.55;;;;;;;21.74;50.50;101102.81;5068885;28;20044;-72
2021/10/02 05:23:17;;;;;;;4.60;3.58;;;;;;;21.78;50.44;101100.63;5069306;28;20043;-71
2021/10/02 05:25:42;;;;;;;4.72;3.55;;;;;;;21.84;50.38;101102.50;5070084;28;20036;-70
2021/10/02 05:28:08;;;;;;;3.90;3.45;;;;;;;21.90;49.76;101099.09;5068788;28;20048;-70
2021/10/02 05:30:33;;;;;;;3.80;3.40;;;;;;;21.95;50.18;101107.34;5069885;28;20040;-70
2021/10/02 05:32:59;;;;;;;4.38;3.40;;;;;;;22.00;50.04;101102.28;5070104;28;20044;-70
2021/10/02 05:35:25;;;;;;;4.15;3.60;;;;;;;22.03;49.55;101113.34;5069357;28;20044;-71
2021/10/02 05:37:51;;;;;;;5.40;3.78;;;;;;;22.05;49.91;101110.53;5066666;28;20090;-71
2021/10/02 05:40:16;;;;;;;4.28;3.50;;;;;;;22.03;49.78;101104.56;5069396;28;20049;-70
2021/10/02 05:42:42;;;;;;;4.78;3.30;;;;;;;22.01;50.00;101101.28;5067552;28;20029;-70
2021/10/02 05:45:08;;;;;;;4.80;3.63;;;;;;;22.02;49.69;101092.31;5069392;28;20032;-72
2021/10/02 05:47:33;;;;;;;3.92;3.33;;;;;;;22.00;50.05;101104.94;5069782;28;20040;-72
2021/10/02 05:49:59;;;;;;;5.25;3.80;;;;;;;21.94;50.20;101098.56;5069450;28;20029;-72
2021/10/02 05:52:26;;;;;;;5.93;4.00;;;;;;;22.03;50.23;101104.56;5068455;28;20119;-70
2021/10/02 05:54:51;;;;;;;3.95;3.58;;;;;;;21.99;49.98;101106.78;5068437;28;20413;-72
2021/10/02 05:57:17;;;;;;;5.00;3.60;;;;;;;21.96;50.09;101096.53;5065632;28;20041;-72
2021/10/02 05:59:43;;;;;;;4.68;3.40;;;;;;;21.97;49.98;101105.31;5063080;28;20036;-72
2021/10/02 06:02:09;;;;;;;4.80;3.45;;;;;;;21.98;50.34;101105.13;5067106;28;20042;-72
2021/10/02 06:04:34;;;;;;;4.80;3.65;;;;;;;21.97;50.11;101114.09;5067856;28;20060;-72
2021/10/02 06:07:00;;;;;;;4.63;3.60;;;;;;;21.97;50.03;101110.63;5067970;28;20051;-72
2021/10/02 06:09:26;;;;;;;4.55;3.75;;;;;;;21.95;50.14;101104.69;5068195;28;20216;-72
2021/10/02 06:11:51;;;;;;;4.20;3.40;;;;;;;21.92;50.02;101107.72;5068863;28;20031;-71
2021/10/02 06:14:17;;;;;;;4.10;3.50;;;;;;;21.92;50.26;101099.75;5067841;28;20048;-72
2021/10/02 06:16:42;;;;;;;3.85;3.45;;;;;;;21.95;50.35;101091.44;5068902;28;20036;-70
2021/10/02 06:19:08;;;;;;;4.60;3.58;;;;;;;21.95;50.09;101094.91;5066265;28;20059;-71
2021/10/02 06:21:34;;;;;;;4.15;3.40;;;;;;;21.94;50.14;101098.56;5067716;28;20058;-72
2021/10/02 06:24:01;;;;;;;4.22;3.50;;;;;;;21.86;50.18;101077.44;5066318;28;20094;-72
2021/10/02 06:26:28;;;;;;;4.25;3.67;;;;;;;21.94;50.10;101087.13;5067940;28;20051;-72
2021/10/02 06:28:54;;;;;;;4.30;3.40;;;;;;;21.91;50.23;101088.34;5065738;28;20036;-70
2021/10/02 06:31:20;;;;;;;3.85;3.33;;;;;;;21.89;50.55;101078.91;5067283;28;20406;-70
2021/10/02 06:33:45;;;;;;;4.05;3.50;;;;;;;21.90;50.58;101084.03;5067666;28;20050;-72
2021/10/02 06:36:12;;;;;;;4.57;3.70;;;;;;;21.90;50.33;101085.84;5065978;28;20086;-72
2021/10/02 06:38:38;;;;;;;4.80;3.72;;;;;;;21.92;50.49;101097.13;5068130;28;20040;-72
2021/10/02 06:41:04;;;;;;;3.97;3.45;;;;;;;21.89;50.55;101108.88;5066981;28;20086;-72
2021/10/02 06:43:31;;;;;;;4.15;3.45;;;;;;;21.88;50.52;101095.81;5068308;28;20496;-71
2021/10/02 06:46:00;;;;;;;5.38;3.92;;;;;;;21.87;50.34;101102.13;5065708;28;20068;-71
2021/10/02 06:48:25;;;;;;;3.93;3.20;;;;;;;21.79;50.60;101089.00;5068196;28;20101;-71
2021/10/02 06:50:51;;;;;;;5.40;3.75;;;;;;;21.82;50.69;101100.03;5049257;28;20470;-70
2021/10/02 06:53:17;;;;;;;4.07;3.53;;;;;;;21.84;50.25;101100.69;5068715;28;20028;-71
2021/10/02 06:55:42;;;;;;;3.83;3.42;;;;;;;21.92;50.39;101095.28;5066494;28;20062;-72
2021/10/02 06:58:08;;;;;;;5.95;4.13;;;;;;;21.97;50.06;101082.28;5063617;28;20062;-71
2021/10/02 07:00:34;;;;;;;5.63;3.65;;;;;;;21.97;50.14;101078.81;5050269;28;20045;-71
2021/10/02 07:03:00;;;;;;;3.92;3.53;;;;;;;22.08;49.77;101094.22;5066640;28;20398;-72
2021/10/02 07:05:25;;;;;;;3.28;2.95;;;;;;;22.13;49.58;101097.16;5066834;28;20039;-72
2021/10/02 07:07:51;;;;;;;5.00;3.33;;;;;;;22.14;49.98;101103.28;5065705;28;20482;-71
2021/10/02 07:10:19;;;;;;;3.67;3.17;;;;;;;22.13;49.84;101099.00;5066153;28;20036;-71
2021/10/02 07:12:45;;;;;;;4.35;3.47;;;;;;;22.13;49.96;101091.03;5067250;28;20047;-71
2021/10/02 07:15:11;;;;;;;5.68;3.72;;;;;;;22.09;50.04;101087.94;5069379;28;20040;-72
2021/10/02 07:17:36;;;;;;;3.50;3.00;;;;;;;22.13;49.74;101089.22;5063886;28;20095;-72
2021/10/02 07:20:02;;;;;;;3.58;3.00;;;;;;;22.10;50.11;101088.78;5062475;28;20112;-71
2021/10/02 07:22:28;;;;;;;3.85;3.45;;;;;;;22.02;50.25;101087.81;5067343;28;20372;-72
2021/10/02 07:24:53;;;;;;;3.72;3.10;;;;;;;22.03;50.29;101086.00;5068314;28;20047;-72
2021/10/02 07:27:19;;;;;;;4.38;3.50;;;;;;;22.13;49.93;101070.66;5065039;28;20429;-72
2021/10/02 07:29:44;;;;;;;5.45;3.30;;;;;;;22.18;50.14;101084.16;5064439;28;20475;-71
2021/10/02 07:32:10;;;;;;;3.97;3.10;;;;;;;22.15;50.09;101086.38;5065863;28;20086;-72
2021/10/02 07:34:35;;;;;;;3.67;3.15;;;;;;;22.15;50.10;101087.19;5065167;28;20051;-71
2021/10/02 07:37:01;;;;;;;3.80;3.20;;;;;;;22.12;49.81;101069.00;5066467;28;20398;-72
2021/10/02 07:39:27;;;;;;;3.67;3.33;;;;;;;22.11;50.41;101075.31;5018719;28;20060;-72
2021/10/02 07:41:54;;;;;;;3.53;3.05;;;;;;;22.06;50.10;101079.53;5066551;28;20036;-71
2021/10/02 07:44:24;;;;;;;3.78;3.30;;;;;;;22.09;50.05;101079.19;5066059;28;20098;-70
2021/10/02 07:46:53;;;;;;;4.55;3.25;;;;;;;22.05;50.39;101073.41;5065544;28;20048;-72
2021/10/02 07:49:21;;;;;;;4.10;3.53;;;;;;;22.06;50.23;101080.34;5067442;28;20044;-71
2021/10/02 07:51:48;;;;;;;5.95;3.60;;;;;;;22.06;50.40;101079.53;5066880;28;20079;-71
2021/10/02 07:54:14;;;;;;;3.75;3.13;;;;;;;22.07;50.09;101081.16;5064217;28;20039;-70
2021/10/02 07:56:42;;;;;;;3.97;3.38;;;;;;;22.04;50.44;101082.34;5066776;28;20049;-70
2021/10/02 07:59:08;;;;;;;4.55;3.50;;;;;;;22.07;50.41;101076.69;5065319;28;20036;-71
2021/10/02 08:01:36;;;;;;;6.55;3.35;;;;;;;22.12;50.16;101063.69;5064706;28;20181;-72
2021/10/02 08:04:04;;;;;;;4.45;3.30;;;;;;;22.22;49.93;101072.16;5065649;28;20039;-70
2021/10/02 08:06:31;;;;;;;4.00;3.58;;;;;;;22.25;50.20;101082.38;5066486;28;20123;-70
2021/10/02 08:08:57;;;;;;;5.47;3.67;;;;;;;22.23;50.18;101078.28;5066144;28;20394;-70
2021/10/02 08:11:23;;;;;;;4.40;3.50;;;;;;;22.22;49.94;101061.53;5060386;28;20067;-70
2021/10/02 08:13:48;;;;;;;7.15;3.42;;;;;;;22.18;50.14;101062.94;5065797;28;20127;-70
2021/10/02 08:16:16;;;;;;;5.25;3.38;;;;;;;22.19;50.08;101053.97;5067717;28;20032;-70
2021/10/02 08:18:44;;;;;;;4.93;3.90;;;;;;;22.18;50.23;101054.97;5065543;28;20048;-70
2021/10/02 08:21:11;;;;;;;4.00;3.60;;;;;;;22.19;50.40;101064.56;5064703;28;20052;-70
2021/10/02 08:23:38;;;;;;;5.40;3.75;;;;;;;22.14;50.52;101056.38;5065205;28;20454;-71
2021/10/02 08:26:05;;;;;;;6.65;3.97;;;;;;;22.16;50.36;101067.59;5054997;28;20037;-71
2021/10/02 08:28:32;;;;;;;5.07;4.05;;;;;;;22.08;50.34;101065.06;5066095;28;20048;-72
2021/10/02 08:31:02;;;;;;;4.55;4.15;;;;;;;22.16;50.11;101067.59;5061857;28;20036;-72
2021/10/02 08:33:28;;;;;;;4.90;3.60;;;;;;;22.14;50.50;101069.63;5063777;28;20031;-71
2021/10/02 08:35:53;;;;;;;9.13;4.35;;;;;;;22.13;50.48;101057.38;5062864;28;20041;-70
2021/10/02 08:38:19;;;;;;;4.07;3.67;;;;;;;22.11;50.20;101054.09;5062620;28;20043;-70
2021/10/02 08:40:45;;;;;;;4.28;3.78;;;;;;;22.10;50.32;101049.81;5066038;28;20490;-70
2021/10/02 08:43:13;;;;;;;5.43;4.00;;;;;;;22.08;50.68;101059.75;5069113;28;20086;-69
2021/10/02 08:45:40;;;;;;;5.28;4.10;;;;;;;22.10;50.28;101057.75;5069404;28;20071;-71
2021/10/02 08:48:06;;;;;;;7.43;4.00;;;;;;;22.10;50.51;101057.75;5068989;28;20458;-71
2021/10/02 08:50:32;;;;;;;4.90;4.25;;;;;;;22.08;50.63;101067.72;5069532;28;20040;-71
2021/10/02 08:52:57;;;;;;;5.00;3.90;;;;;;;22.06;50.77;101056.47;5069127;28;20482;-70
2021/10/02 08:55:24;;;;;;;5.35;4.13;;;;;;;22.06;50.87;101045.06;5070013;28;20056;-70
2021/10/02 08:57:51;;;;;;;6.63;4.55;;;;;;;22.02;50.92;101049.88;5069526;28;20079;-70
2021/10/02 09:00:22;;;;;;;6.13;4.35;;;;;;;22.10;50.79;101046.34;5066862;28;20085;-70
2021/10/02 09:02:48;;;;;;;5.25;4.25;;;;;;;22.08;50.72;101057.09;5069821;28;20115;-70
2021/10/02 09:05:16;;;;;;;7.07;4.40;;;;;;;22.06;50.69;101053.00;5070138;28;20092;-69
2021/10/02 09:07:41;;;;;;;6.05;4.80;;;;;;;22.02;50.88;101066.63;5067695;28;20056;-70
2021/10/02 09:10:10;;;;;;;4.82;4.32;;;;;;;22.04;50.71;101063.78;5069099;28;20075;-69
2021/10/02 09:12:41;;;;;;;5.20;4.20;;;;;;;22.04;50.75;101058.47;5068685;28;20108;-70
2021/10/02 09:15:07;;;;;;;7.32;4.53;;;;;;;22.03;50.38;101056.84;5067499;28;20440;-69
2021/10/02 09:17:33;;;;;;;6.88;4.80;;;;;;;22.05;50.79;101061.97;5051781;28;20032;-69
2021/10/02 09:19:59;;;;;;;5.38;4.85;;;;;;;22.02;51.13;101049.88;5067232;28;20047;-68
2021/10/02 09:22:25;;;;;;;5.70;4.50;;;;;;;22.08;50.40;101054.47;5048008;28;20046;-69
2021/10/02 09:24:53;;;;;;;6.20;4.80;;;;;;;22.08;50.82;101049.16;5049964;28;20037;-70
2021/10/02 09:27:25;;;;;;;6.07;4.75;;;;;;;22.08;50.84;101041.19;5068849;28;20173;-69
2021/10/02 09:30:14;;;;;;;4.57;4.03;;;;;;;22.02;50.71;101044.59;5068763;28;20037;-69
2021/10/02 09:32:44;;;;;;;10.80;5.27;;;;;;;22.08;50.61;101021.81;5067782;28;20047;-69
2021/10/02 09:35:16;;;;;;;6.85;4.75;;;;;;;22.06;50.97;101026.50;5068592;28;20052;-69
2021/10/02 09:37:46;;;;;;;8.38;4.85;;;;;;;22.04;50.88;101026.66;5069639;28;20071;-70
2021/10/02 09:40:19;;;;;;;7.00;4.40;;;;;;;22.11;50.63;101024.09;5069278;28;20531;-69
2021/10/02 09:42:49;;;;;;;8.48;4.63;;;;;;;22.08;50.84;101019.16;5069879;28;20119;-69
2021/10/02 09:45:38;;;;;;;5.53;4.65;;;;;;;22.07;50.68;101018.34;5068316;28;20894;-69
2021/10/02 09:48:09;;;;;;;5.70;4.50;;;;;;;22.05;51.14;101015.06;5069302;28;20189;-69
2021/10/02 09:50:47;;;;;;;5.03;4.47;;;;;;;22.03;50.99;101017.88;5066707;28;20040;-69
2021/10/02 09:53:18;;;;;;;4.80;4.18;;;;;;;22.06;50.55;101008.75;5067852;28;20458;-69
2021/10/02 09:55:46;;;;;;;6.35;4.65;;;;;;;22.04;51.03;101016.03;5066088;28;20131;-69
2021/10/02 09:58:29;;;;;;;7.75;5.20;;;;;;;22.00;50.83;101020.09;5067238;28;20052;-69
2021/10/02 10:00:56;;;;;;;8.18;5.03;;;;;;;22.03;50.86;101017.88;5067881;28;20036;-70
2021/10/02 10:03:23;;;;;;;6.10;4.88;;;;;;;22.05;51.00;101022.19;5066894;28;20121;-68
2021/10/02 10:05:54;;;;;;;5.15;4.63;;;;;;;22.05;50.83;101015.06;5068255;28;20485;-70
2021/10/02 10:08:26;;;;;;;6.28;4.70;;;;;;;22.03;50.71;101030.31;5065042;28;20547;-69
2021/10/02 10:11:04;;;;;;;7.80;4.80;;;;;;;22.01;51.18;101022.53;5069244;28;20060;-68
2021/10/02 10:13:30;;;;;;;6.70;4.65;;;;;;;22.03;50.89;101036.44;5048933;28;20075;-68
2021/10/02 10:15:57;;;;;;;6.40;4.70;;;;;;;22.00;50.97;101018.25;5064904;28;20059;-68
2021/10/02 10:18:32;;;;;;;5.53;4.53;;;;;;;22.05;50.82;101025.66;5066937;28;20066;-68
2021/10/02 10:21:03;;;;;;;6.28;5.28;;;;;;;22.08;50.88;101035.88;5069472;28;20567;-68
2021/10/02 10:23:31;;;;;;;7.00;4.75;;;;;;;22.00;50.77;101026.22;5061435;28;20382;-69
2021/10/02 10:26:06;;;;;;;6.45;4.72;;;;;;;22.02;50.76;101031.31;5070015;28;20028;-68
2021/10/02 10:28:34;;;;;;;6.28;5.15;;;;;;;22.05;50.97;101030.97;5067569;28;20040;-68
2021/10/02 10:31:16;;;;;;;5.93;4.65;;;;;;;22.05;50.73;101028.31;5069212;28;20464;-68
2021/10/02 10:33:45;;;;;;;5.13;4.60;;;;;;;22.00;50.85;101014.78;5065070;28;20032;-69
2021/10/02 10:36:13;;;;;;;6.72;4.97;;;;;;;22.01;51.09;101011.13;5068469;28;20115;-69
2021/10/02 10:38:41;;;;;;;7.75;4.88;;;;;;;22.02;50.99;101000.31;5067615;28;20449;-69
2021/10/02 10:41:07;;;;;;;9.13;5.15;;;;;;;21.99;50.71;100998.06;5068563;28;20103;-69
2021/10/02 10:43:34;;;;;;;9.20;4.88;;;;;;;22.00;50.73;100996.22;5066696;28;20045;-69
2021/10/02 10:46:02;;;;;;;6.20;5.32;;;;;;;22.04;50.58;100994.81;5067129;28;20044;-69
2021/10/02 10:48:27;;;;;;;7.95;5.40;;;;;;;21.92;50.88;100965.38;5064211;28;20031;-69
2021/10/02 10:50:58;;;;;;;5.95;5.00;;;;;;;22.00;50.82;100982.97;5066480;28;20040;-69
2021/10/02 10:53:35;;;;;;;6.50;5.00;;;;;;;22.05;50.58;100980.59;5062506;28;20542;-69
2021/10/02 10:56:00;;;;;;;7.90;5.47;;;;;;;22.04;50.85;100965.66;5066372;28;20058;-70
2021/10/02 10:58:29;;;;;;;6.28;5.05;;;;;;;22.06;50.97;100962.84;5062810;28;20460;-69
2021/10/02 11:00:56;;;;;;;6.95;4.90;;;;;;;22.03;50.69;100953.41;5065515;28;20362;-69
2021/10/02 11:03:41;;;;;;;6.20;5.00;;;;;;;22.08;50.94;100951.03;5065246;28;20066;-69
2021/10/02 11:06:19;;;;;;;7.25;5.60;;;;;;;22.04;50.90;100949.75;5065329;28;20072;-68
2021/10/02 11:09:05;;;;;;;9.60;5.55;;;;;;;22.09;50.75;100935.97;5067197;28;20036;-69
2021/10/02 11:11:46;;;;;;;8.43;5.38;;;;;;;22.05;50.76;100934.69;5066647;28;20058;-69
2021/10/02 11:14:12;;;;;;;11.68;5.70;;;;;;;22.05;50.86;100930.19;5066485;28;20094;-69
2021/10/02 11:16:40;;;;;;;7.95;5.53;;;;;;;22.01;50.96;100926.28;5065499;28;20040;-68
2021/10/02 11:19:30;;;;;;;7.10;5.93;;;;;;;22.06;50.96;100931.03;5063021;28;20036;-68
2021/10/02 11:22:37;;;;;;;8.05;5.20;;;;;;;22.01;51.10;100936.88;5062732;28;20036;-70
2021/10/02 11:25:20;;;;;;;6.85;5.30;;;;;;;22.04;51.11;100931.19;5066703;28;20405;-70
2021/10/02 11:27:46;;;;;;;6.82;5.45;;;;;;;22.04;50.78;100933.84;5065927;28;20036;-70
2021/10/02 11:30:17;;;;;;;6.60;5.30;;;;;;;22.01;50.95;100931.56;5063612;28;20025;-70
2021/10/02 11:32:43;;;;;;;8.10;5.30;;;;;;;22.00;50.93;100927.28;5065195;28;20041;-70
2021/10/02 11:35:12;;;;;;;9.07;5.88;;;;;;;22.03;50.83;100921.59;5066003;28;20161;-70
2021/10/02 11:37:41;;;;;;;9.15;5.93;;;;;;;22.02;50.73;100927.91;5064957;28;20119;-70
2021/10/02 11:40:32;;;;;;;8.77;5.78;;;;;;;21.96;50.90;100926.03;5062752;28;20067;-70
2021/10/02 11:43:13;;;;;;;7.22;5.22;;;;;;;21.98;50.75;100908.09;5047509;28;20044;-70
2021/10/02 11:45:58;;;;;;;7.70;5.45;;;;;;;21.99;50.87;100907.09;5066211;28;20059;-70
2021/10/02 11:48:34;;;;;;;6.40;5.15;;;;;;;22.02;50.75;100904.84;5066111;28;20453;-70
2021/10/02 11:51:17;;;;;;;6.82;5.03;;;;;;;22.01;50.89;100894.44;5067814;28;20478;-70
2021/10/02 11:53:46;;;;;;;8.13;5.60;;;;;;;22.04;51.04;100899.38;5066778;28;20067;-70
2021/10/02 11:56:16;;;;;;;;;;;;;;;22.04;51.04;100888.75;5065338;28;20119;-70
2021/10/02 11:58:44;;;;;;;7.75;5.63;;;;;;;21.96;51.02;100868.53;5064698;28;20362;-70
2021/10/02 12:01:19;;;;;;;6.68;4.97;;;;;;;22.01;51.07;100859.97;5066292;28;20043;-70
2021/10/02 12:03:45;;;;;;;10.18;5.78;;;;;;;22.03;50.92;100863.25;5066553;28;20039;-70
2021/10/02 12:06:10;;;;;;;6.97;5.15;;;;;;;22.04;51.07;100859.59;5066116;28;20469;-70
2021/10/02 12:08:38;;;;;;;7.40;5.00;;;;;;;22.06;50.80;100854.94;5066963;28;20032;-70
2021/10/02 12:11:08;;;;;;;9.55;5.55;;;;;;;22.05;50.97;100855.94;5066177;28;20028;-70
2021/10/02 12:13:45;;;;;;;6.93;5.22;;;;;;;22.05;51.07;100857.78;5065855;28;20074;-70
2021/10/02 12:16:25;;;;;;;8.73;4.85;;;;;;;22.05;50.74;100853.31;5064902;28;20068;-70
2021/10/02 12:19:09;;;;;;;8.18;5.05;;;;;;;22.01;51.09;100844.88;5064777;28;20044;-70
2021/10/02 12:21:44;;;;;;;6.47;5.15;;;;;;;21.99;51.15;100838.13;5064840;28;20047;-70
2021/10/02 12:24:18;;;;;;;8.70;5.63;;;;;;;22.02;50.98;100827.97;5065829;28;20506;-70
2021/10/02 12:26:54;;;;;;;6.80;5.05;;;;;;;22.02;50.80;100811.22;5061816;28;20509;-70